Terminal Aerodrome Forecast
Issued by NWS

Home | Current Version | Previous Version | Text Only | Print | Product List | Glossary On
Versions: 1 2 3 4 5 6 7 8 9 10 11 12 13 14 15 16 17 18 19
000
FTUS44 KEWX 160900 AAB
TAFSSF
TAF AMD
KSSF 160919Z 1609/1706 03003KT P6SM SCT030 SCT070 BKN250
     FM161200 06003KT P6SM BKN025
     FM161800 08007KT P6SM BKN035
      TEMPO 1620/1624 VRB20G30KT 5SM TSRA BKN030CB=

USA.gov is the U.S. government's official web portal to all federal, state and local government web resources and services.